Petrochina Co Ltd (PTR) Latest Bloomsberg Price


Mffais Ranking #484 Overall / #6 Industry
Industry: Integrated Oils

Number of Companies: 95 (Ranking #1702 Overall/#11 Industry)
Inflow: $ 32,598 (K) (Ranking #1521 Overall/#11 Industry)
Outflow: $ -22,146 (K)
Mffais Flow: $ 10,451 (K) (Ranking #484 Overall/#6 Industry)


Receive a FREE weekly executive review of stocks moving into the top 10, taking the top industy spot or moving up within their industry. Sent directly to your Inbox every Saturday. Sign up today and get last week's review immediately sent to you.

We value and respect your privacy. Please read our Terms and Conditions which states our firm commitment to your privacy. Your email address will not be shared with a third party, nor will it be sold or used for purposes other than subscription for the weekly review.

Owner CPOR Shares Action Qty Chg Invested (K) Total Current Value (K)
Spot Trading L L C 2016-09-30 158,634 New Holding 158,634 $ 10,758 $ 10,758
Sumitomo Mitsui Trust Holdings Inc 2016-09-30 87,733 New Holding 87,733 $ 5,950 $ 5,950
Assetmark Inc 2016-09-30 69,907 New Holding 69,907 $ 4,741 $ 4,741
Hsbc Holdings Plc 2016-09-30 68,252 Added More 66,031 $ 4,478 $ 4,628
Bridgewater Associates Lp 2016-09-30 44,956 Added More 24,147 $ 1,637 $ 3,048
Jane Street Group Llc 2016-09-30 71,136 Added More 15,862 $ 1,075 $ 4,824
Bluefin Trading Llc 2016-09-30 31,894 Added More 10,924 $ 740 $ 2,163
Profund Advisors Llc 2016-09-30 31,475 Added More 7,523 $ 510 $ 2,134
Trexquant Investment Lp 2016-09-30 7,289 New Holding 7,289 $ 494 $ 494
Nikko Asset Management Americas Inc 2016-09-30 87,733 Added More 6,700 $ 454 $ 5,950
Simplex Trading Llc 2016-09-30 6,695 Added More 5,226 $ 354 $ 454
Peak6 Investments L P 2016-09-30 5,100 New Holding 5,100 $ 345 $ 345
Emerald Acquisition Ltd 2016-09-30 89,492 Added More 3,518 $ 238 $ 6,069
Capstone Asset Management Co 2016-09-30 25,275 Added More 3,490 $ 236 $ 1,714
Segantii Capital Management Ltd 2016-09-30 11,892 Added More 3,100 $ 210 $ 806
Brandes Investment Partners Lp 2016-09-30 40,137 Added More 1,235 $ 83 $ 2,722
World Asset Management Inc 2016-09-30 14,106 Added More 1,049 $ 71 $ 956
Envestnet Asset Management Inc 2016-09-30 6,487 Added More 1,022 $ 69 $ 439
Cadence Capital Management Llc 2016-09-30 11,877 Added More 737 $ 49 $ 805
Cubist Systematic Strategies Llc 2016-09-30 4,894 Added More 369 $ 25 $ 331
Creative Planning 2016-09-30 670 Added More 365 $ 24 $ 45
Mirae Asset Global Investments Co Ltd 2016-09-30 3,528 Added More 296 $ 20 $ 239
Salem Investment Counselors Inc 2016-09-30 200 New Holding 200 $ 13 $ 13
Next Financial Group Inc 2016-09-30 70 New Holding 70 $ 4 $ 4
Howe Rusling Inc 2016-09-30 65 New Holding 65 $ 4 $ 4
Hightower Advisors Llc 2016-09-30 8,821 Added More 34 $ 2 $ 598
Msi Financial Services Inc 2016-09-30 30 Added More 17 $ 1 $ 2
Ifp Advisors Inc 2016-09-30 141 Added More 16 $ 1 $ 9
Veritable L P 2016-09-30 3,000 No Change 0 $ 0 $ 203
Us Bancorp De 2016-09-30 1,165 No Change 0 $ 0 $ 79
Sit Investment Associates Inc 2016-09-30 2,300 No Change 0 $ 0 $ 155
Rockefeller Financial Services Inc 2016-09-30 3 No Change 0 $ 0 $ 0
Panagora Asset Management Inc 2016-09-30 655 No Change 0 $ 0 $ 44
Bluestein R H Co 2016-09-30 5,000 No Change 0 $ 0 $ 339
Pear Tree Advisors Inc 2016-06-30 505 No Change 0 $ 0 $ 34
Ladenburg Thalmann Financial Services Inc 2016-09-30 1,016 No Change 0 $ 0 $ 68
Gabelli Funds Llc 2016-09-30 6,800 No Change 0 $ 0 $ 461
Castleark Management Llc 2016-09-30 18,450 No Change 0 $ 0 $ 1,251
Rbf Capital Llc 2016-09-30 3,000 No Change 0 $ 0 $ 203
Whittier Trust Co 2016-09-30 300 No Change 0 $ 0 $ 20
Whittier Trust Co Of Nevada Inc 2016-09-30 200 No Change 0 $ 0 $ 13
Jacobi Capital Management Llc 2016-09-30 135 No Change 0 $ 0 $ 9
Gemmer Asset Management Llc 2016-09-30 100 No Change 0 $ 0 $ 6
Sg Americas Securities Llc 2016-09-30 2,071 No Change 0 $ 0 $ 140
Reilly Financial Advisors Llc 2016-09-30 175 No Change 0 $ 0 $ 11
Armbruster Capital Management Inc 2016-09-30 200 No Change 0 $ 0 $ 13
Quadrant Capital Group Llc 2016-09-30 172 No Change 0 $ 0 $ 11
Financial Architects Inc 2016-09-30 100 No Change 0 $ 0 $ 6
Ls Investment Advisors Llc 2016-09-30 100 No Change 0 $ 0 $ 6
Dekabank Deutsche Girozentrale 2016-09-30 2,000 No Change 0 $ 0 $ 135
Edmond De Rothschild Suisse S A 2016-09-30 200 No Change 0 $ 0 $ 13
Edmond De Rothschild Holding S A 2016-09-30 200 No Change 0 $ 0 $ 13
Whitnell Co 2016-09-30 47 No Change 0 $ 0 $ 3
Pacer Advisors Inc 2016-09-30 9,493 No Change 0 $ 0 $ 643
Founders Capital Management Llc 2016-09-30 5,370 No Change 0 $ 0 $ 364
Central Trust Co 2016-09-30 0 Sold All -1 $ -0 $ 0
Winfield Associates Inc 2016-09-30 30 Sold Some -20 $ -1 $ 2
Oshaughnessy Asset Management Llc 2016-09-30 1,398 Sold Some -68 $ -4 $ 94
Sei Investments Co 2016-09-30 501 Sold Some -74 $ -5 $ 33
Acrospire Investment Management Llc 2016-09-30 300 Sold Some -100 $ -6 $ 20
Advisor Group Inc 2016-09-30 16 Sold Some -170 $ -11 $ 1
Compagnie Lombard Odier Scma 2016-09-30 0 Sold All -200 $ -13 $ 0
Pnc Financial Services Group Inc 2016-09-30 100 Sold Some -293 $ -19 $ 6
Synovus Financial Corp 2016-09-30 0 Sold All -300 $ -20 $ 0
M T Bank Corp 2016-09-30 6,534 Sold Some -521 $ -35 $ 443
Comerica Bank 2016-09-30 10,610 Sold Some -688 $ -46 $ 719
Blackrock Inc 2016-09-30 12,916 Sold Some -796 $ -53 $ 875
Sandy Spring Bank 2016-09-30 0 Sold All -800 $ -54 $ 0
Parametric Portfolio Associates Llc 2016-09-30 28,799 Sold Some -808 $ -54 $ 1,953
Checchi Capital Advisers Llc 2016-09-30 0 Sold All -1,008 $ -68 $ 0
Tower Research Capital Llc Trc 2016-09-30 763 Sold Some -1,350 $ -91 $ 51
Quantbot Technologies Lp 2016-09-30 266 Sold Some -1,401 $ -95 $ 18
Aperio Group Llc 2016-09-30 30,925 Sold Some -1,824 $ -123 $ 2,097
Horizon Kinetics Llc 2016-09-30 8,052 Sold Some -2,254 $ -152 $ 546
Geneva Advisors Llc 2016-09-30 15,490 Sold Some -2,296 $ -155 $ 1,050
Pacad Investment Ltd 2016-09-30 0 Sold All -2,500 $ -169 $ 0
Liberty Mutual Group Asset Management Inc 2016-09-30 0 Sold All -3,092 $ -209 $ 0
Timber Hill Llc 2016-09-30 3,032 Sold Some -3,477 $ -235 $ 205
Americafirst Capital Management Llc 2016-09-30 0 Sold All -3,910 $ -265 $ 0
Group One Trading L P 2016-09-30 329 Sold Some -5,045 $ -342 $ 22
Stevens Capital Management Lp 2016-09-30 0 Sold All -5,139 $ -348 $ 0
Dimensional Fund Advisors Lp 2016-09-30 377,283 Sold Some -5,927 $ -401 $ 25,587
Royal Bank Of Scotland Group Plc 2016-09-30 0 Sold All -6,323 $ -428 $ 0
Guggenheim Capital Llc 2016-09-30 16,554 Sold Some -7,196 $ -488 $ 1,122
Walleye Trading Llc 2016-09-30 19,120 Sold Some -8,252 $ -559 $ 1,296
Northern Trust Corp 2016-09-30 114,028 Sold Some -9,312 $ -631 $ 7,733
Gam Holding Ag 2016-09-30 0 Sold All -13,600 $ -922 $ 0
Capital Fund Management S A 2016-09-30 0 Sold All -17,330 $ -1,175 $ 0
Kcg Holdings Inc 2016-09-30 0 Sold All -18,040 $ -1,223 $ 0
Schafer Cullen Capital Management Inc 2016-09-30 0 Sold All -18,935 $ -1,284 $ 0
Advisors Asset Management Inc 2016-09-30 12,129 Sold Some -26,071 $ -1,768 $ 822
Westpac Banking Corp 2016-09-30 266,397 Sold Some -26,572 $ -1,802 $ 18,067
Cutler Group Lp 2016-09-30 20,863 Sold Some -31,562 $ -2,140 $ 1,414
Nine Masts Capital Ltd 2016-09-30 7 Sold Some -49,300 $ -3,343 $ 0
Bluecrest Capital Management Ltd 2016-09-30 0 Sold All -50,000 $ -3,391 $ 0